Airfield :
LOGIN :

Register | Disclaimer

   EN    FR    IT 

 










Legend :    VFR   Marginal VFR   IFR   Intensive IFR   Very Intensive IFR
Visi :
Ceiling :
>= 8 km
>= 3000ft
5 to 8 km
1000 to 3000 ft
1500m to 5 km
500 to 1000 ft
800 to 1500m
200 to 500 ft
< 800m
< 200 ft
Symbols :   Thunderstorms  Fog  Heavy snow  Heavy precipitations  Wind > 20 kt
SIGMETs :     Misc.  Thunderstorms  Icing  Turbulence  Mountain Waves  Volcanic Ashes






- Airport Elevation : 1568 ft


ETSB - Büchel AB

CURRENT METAR :
  • 031820Z AUTO 16002KT 9999 // ////// 20/09 Q1002 ///

EXPIRED METARs :
  • 031720Z AUTO 15002KT 9999 // ////// 21/09 Q1002 ///
  • 031620Z AUTO 35003KT 9999 // ////// 21/07 Q1003 ///
  • 031601Z 31004KT 9999 SCT050TCU SCT100 BKN220 21/08 Q1003 BLU+FCST CANCEL

TAF TAF ETSB
Valid from the 03 at 14:00 until the 03 at 23:00 UTC


031320Z 0314/0323 31005G15KT 9999 NSW FEW050 SCT120
TEMPO 0314/0323 25010G20KT 7000 SHRA SCT050CB
PROB30 0314/0323 VRB15G30KT 5000 TSRA FEW030 BKN050CB BY ETGL



MET'MAP, your aeronautical weather chart ! - Copyright ORBIFLY December 2007 - Disclaimer

ORBIFLY MET'MAP TEAM :

Programming & Development : Alexandra Zaïnal
Concept & original design : Baudouin d'Aumeries
Assistance for programming : Marc-Olivier Méhu
Technical & hardware support : Manuel Goepfert

Contact : metmap@orbifly.com




SOURCES & CREDITS :

   NOAA